sensor_id;sensor_type;location;lat;lon;timestamp;temperature;humidity
13205;DHT22;6667;52.634;9.226;2022-09-29T04:47:13;5.30;99.90
13205;DHT22;6667;52.634;9.226;2022-09-29T04:49:40;5.30;99.90
13205;DHT22;6667;52.634;9.226;2022-09-29T04:52:08;5.30;99.90
13205;DHT22;6667;52.634;9.226;2022-09-29T04:54:35;5.30;99.90
13205;DHT22;6667;52.634;9.226;2022-09-29T04:57:01;5.30;99.90
13205;DHT22;6667;52.634;9.226;2022-09-29T04:59:28;5.30;99.90
13205;DHT22;6667;52.634;9.226;2022-09-29T05:01:55;5.40;99.90
13205;DHT22;6667;52.634;9.226;2022-09-29T05:04:23;5.40;99.90
13205;DHT22;6667;52.634;9.226;2022-09-29T05:06:50;5.40;99.90
13205;DHT22;6667;52.634;9.226;2022-09-29T05:09:16;5.40;99.90
13205;DHT22;6667;52.634;9.226;2022-09-29T05:11:43;5.30;99.90
13205;DHT22;6667;52.634;9.226;2022-09-29T05:14:10;5.30;99.90
13205;DHT22;6667;52.634;9.226;2022-09-29T05:16:37;5.30;99.90
13205;DHT22;6667;52.634;9.226;2022-09-29T05:19:04;5.20;99.90
13205;DHT22;6667;52.634;9.226;2022-09-29T05:21:32;5.20;99.90
13205;DHT22;6667;52.634;9.226;2022-09-29T05:23:58;5.20;99.90
13205;DHT22;6667;52.634;9.226;2022-09-29T05:26:25;5.20;99.90
13205;DHT22;6667;52.634;9.226;2022-09-29T05:28:52;5.20;99.90
13205;DHT22;6667;52.634;9.226;2022-09-29T05:31:18;5.30;99.90
13205;DHT22;6667;52.634;9.226;2022-09-29T05:33:45;5.30;99.90
13205;DHT22;6667;52.634;9.226;2022-09-29T05:36:12;5.30;99.90
13205;DHT22;6667;52.634;9.226;2022-09-29T05:38:41;5.20;99.90
13205;DHT22;6667;52.634;9.226;2022-09-29T05:41:10;5.20;99.90
13205;DHT22;6667;52.634;9.226;2022-09-29T05:43:37;5.30;99.90
13205;DHT22;6667;52.634;9.226;2022-09-29T05:46:06;5.30;99.90
13205;DHT22;6667;52.634;9.226;2022-09-29T05:48:33;5.30;99.90
13205;DHT22;6667;52.634;9.226;2022-09-29T05:51:06;5.40;99.90
13205;DHT22;6667;52.634;9.226;2022-09-29T05:53:33;5.40;99.90
13205;DHT22;6667;52.634;9.226;2022-09-29T05:56:05;5.40;99.90
13205;DHT22;6667;52.634;9.226;2022-09-29T05:58:32;5.50;99.90
13205;DHT22;6667;52.634;9.226;2022-09-29T06:01:03;5.50;99.90
13205;DHT22;6667;52.634;9.226;2022-09-29T06:03:31;5.60;99.90
13205;DHT22;6667;52.634;9.226;2022-09-29T06:06:04;5.60;99.90
13205;DHT22;6667;52.634;9.226;2022-09-29T13:11:53;20.90;99.90
13205;DHT22;6667;52.634;9.226;2022-09-29T13:14:37;21.10;99.90
13205;DHT22;6667;52.634;9.226;2022-09-29T13:17:21;20.90;99.90
13205;DHT22;6667;52.634;9.226;2022-09-29T13:20:02;20.80;99.90
13205;DHT22;6667;52.634;9.226;2022-09-29T13:22:50;21.00;99.90
13205;DHT22;6667;52.634;9.226;2022-09-29T13:25:23;21.20;99.90
13205;DHT22;6667;52.634;9.226;2022-09-29T13:27:55;21.00;99.90
13205;DHT22;6667;52.634;9.226;2022-09-29T13:30:25;20.20;99.90
13205;DHT22;6667;52.634;9.226;2022-09-29T13:32:57;20.40;99.90
13205;DHT22;6667;52.634;9.226;2022-09-29T13:35:24;20.50;99.90
13205;DHT22;6667;52.634;9.226;2022-09-29T13:37:56;20.10;99.90
13205;DHT22;6667;52.634;9.226;2022-09-29T13:40:28;20.50;99.90
13205;DHT22;6667;52.634;9.226;2022-09-29T13:42:57;20.80;99.90
13205;DHT22;6667;52.634;9.226;2022-09-29T13:45:42;20.80;99.90
13205;DHT22;6667;52.634;9.226;2022-09-29T13:51:26;19.90;99.90
13205;DHT22;6667;52.634;9.226;2022-09-29T13:54:34;20.10;99.90
13205;DHT22;6667;52.634;9.226;2022-09-29T13:57:28;20.00;99.90
13205;DHT22;6667;52.634;9.226;2022-09-29T14:00:18;19.80;99.90
13205;DHT22;6667;52.634;9.226;2022-09-29T14:02:49;19.80;99.90
13205;DHT22;6667;52.634;9.226;2022-09-29T14:08:27;19.40;99.90
13205;DHT22;6667;52.634;9.226;2022-09-29T14:11:10;19.40;99.90
13205;DHT22;6667;52.634;9.226;2022-09-29T14:13:42;19.30;99.90
13205;DHT22;6667;52.634;9.226;2022-09-29T14:16:26;19.10;99.90
13205;DHT22;6667;52.634;9.226;2022-09-29T14:19:00;19.30;99.90
13205;DHT22;6667;52.634;9.226;2022-09-29T14:21:49;19.10;99.90
13205;DHT22;6667;52.634;9.226;2022-09-29T14:24:41;18.70;99.90
13205;DHT22;6667;52.634;9.226;2022-09-29T14:27:28;18.50;99.90
13205;DHT22;6667;52.634;9.226;2022-09-29T14:30:13;18.70;99.90
13205;DHT22;6667;52.634;9.226;2022-09-29T14:32:47;18.90;99.90
13205;DHT22;6667;52.634;9.226;2022-09-29T14:35:20;18.90;99.90
13205;DHT22;6667;52.634;9.226;2022-09-29T14:37:56;18.60;99.90
13205;DHT22;6667;52.634;9.226;2022-09-29T14:40:24;18.50;99.90
13205;DHT22;6667;52.634;9.226;2022-09-29T14:43:02;18.50;99.90
13205;DHT22;6667;52.634;9.226;2022-09-29T14:45:31;18.00;99.90
13205;DHT22;6667;52.634;9.226;2022-09-29T14:48:26;18.00;99.90
13205;DHT22;6667;52.634;9.226;2022-09-29T14:51:17;17.90;99.90
13205;DHT22;6667;52.634;9.226;2022-09-29T14:54:07;18.00;99.90
13205;DHT22;6667;52.634;9.226;2022-09-29T14:56:51;17.90;99.90
13205;DHT22;6667;52.634;9.226;2022-09-29T14:59:30;17.80;99.90
13205;DHT22;6667;52.634;9.226;2022-09-29T15:02:17;17.70;99.90
13205;DHT22;6667;52.634;9.226;2022-09-29T15:04:47;17.30;99.90
13205;DHT22;6667;52.634;9.226;2022-09-29T15:07:15;17.50;99.90
13205;DHT22;6667;52.634;9.226;2022-09-29T15:09:46;17.60;99.90
13205;DHT22;6667;52.634;9.226;2022-09-29T15:12:14;17.50;99.90
13205;DHT22;6667;52.634;9.226;2022-09-29T15:14:41;17.20;99.90
13205;DHT22;6667;52.634;9.226;2022-09-29T15:17:16;17.20;99.90
13205;DHT22;6667;52.634;9.226;2022-09-29T15:19:50;17.10;99.90
13205;DHT22;6667;52.634;9.226;2022-09-29T15:22:45;16.90;99.90
13205;DHT22;6667;52.634;9.226;2022-09-29T15:25:22;17.00;99.90
13205;DHT22;6667;52.634;9.226;2022-09-29T15:27:56;17.20;99.90
13205;DHT22;6667;52.634;9.226;2022-09-29T15:30:24;16.90;99.90
13205;DHT22;6667;52.634;9.226;2022-09-29T15:32:52;16.70;99.90
13205;DHT22;6667;52.634;9.226;2022-09-29T15:35:22;16.60;99.90
13205;DHT22;6667;52.634;9.226;2022-09-29T15:37:58;16.30;99.90
13205;DHT22;6667;52.634;9.226;2022-09-29T15:40:36;16.30;99.90
13205;DHT22;6667;52.634;9.226;2022-09-29T15:43:08;16.30;99.90
13205;DHT22;6667;52.634;9.226;2022-09-29T15:45:52;16.40;99.90
13205;DHT22;6667;52.634;9.226;2022-09-29T15:48:19;16.20;99.90
13205;DHT22;6667;52.634;9.226;2022-09-29T15:50:48;16.00;99.90
13205;DHT22;6667;52.634;9.226;2022-09-29T15:53:16;16.00;99.90
13205;DHT22;6667;52.634;9.226;2022-09-29T15:55:43;15.80;99.90
13205;DHT22;6667;52.634;9.226;2022-09-29T15:58:34;15.90;99.90
13205;DHT22;6667;52.634;9.226;2022-09-29T16:01:04;15.70;99.90
13205;DHT22;6667;52.634;9.226;2022-09-29T16:03:36;15.60;99.90
13205;DHT22;6667;52.634;9.226;2022-09-29T16:06:18;15.50;99.90
13205;DHT22;6667;52.634;9.226;2022-09-29T16:08:48;15.50;99.90
13205;DHT22;6667;52.634;9.226;2022-09-29T16:11:22;15.30;99.90
13205;DHT22;6667;52.634;9.226;2022-09-29T16:13:53;15.30;99.90
13205;DHT22;6667;52.634;9.226;2022-09-29T16:16:29;15.30;99.90
13205;DHT22;6667;52.634;9.226;2022-09-29T16:19:06;15.10;99.90
13205;DHT22;6667;52.634;9.226;2022-09-29T16:21:37;15.10;99.90
13205;DHT22;6667;52.634;9.226;2022-09-29T16:24:12;15.00;99.90
13205;DHT22;6667;52.634;9.226;2022-09-29T16:26:44;15.00;99.90
13205;DHT22;6667;52.634;9.226;2022-09-29T16:29:29;14.90;99.90
13205;DHT22;6667;52.634;9.226;2022-09-29T16:31:57;14.90;99.90
13205;DHT22;6667;52.634;9.226;2022-09-29T16:34:31;14.70;99.90
13205;DHT22;6667;52.634;9.226;2022-09-29T16:37:02;14.70;99.90
13205;DHT22;6667;52.634;9.226;2022-09-29T16:39:30;14.70;99.90
13205;DHT22;6667;52.634;9.226;2022-09-29T16:42:00;14.60;99.90
13205;DHT22;6667;52.634;9.226;2022-09-29T16:44:30;14.60;99.90
13205;DHT22;6667;52.634;9.226;2022-09-29T16:46:59;14.50;99.90
13205;DHT22;6667;52.634;9.226;2022-09-29T16:49:29;14.40;99.90
13205;DHT22;6667;52.634;9.226;2022-09-29T16:52:01;14.50;99.90
13205;DHT22;6667;52.634;9.226;2022-09-29T16:54:31;14.40;99.90
13205;DHT22;6667;52.634;9.226;2022-09-29T16:57:22;14.40;99.90
13205;DHT22;6667;52.634;9.226;2022-09-29T16:59:52;14.30;99.90
13205;DHT22;6667;52.634;9.226;2022-09-29T17:02:20;14.30;99.90
13205;DHT22;6667;52.634;9.226;2022-09-29T17:04:48;14.20;99.90
13205;DHT22;6667;52.634;9.226;2022-09-29T17:07:18;14.10;99.90
13205;DHT22;6667;52.634;9.226;2022-09-29T17:09:46;14.10;99.90
13205;DHT22;6667;52.634;9.226;2022-09-29T17:12:15;14.10;99.90
13205;DHT22;6667;52.634;9.226;2022-09-29T17:14:42;14.00;99.90
13205;DHT22;6667;52.634;9.226;2022-09-29T17:17:16;13.90;99.90
13205;DHT22;6667;52.634;9.226;2022-09-29T17:19:44;13.90;99.90
13205;DHT22;6667;52.634;9.226;2022-09-29T17:22:24;13.80;99.90
13205;DHT22;6667;52.634;9.226;2022-09-29T17:24:52;13.70;99.90
13205;DHT22;6667;52.634;9.226;2022-09-29T17:27:19;13.60;99.90
13205;DHT22;6667;52.634;9.226;2022-09-29T17:30:04;13.60;99.90
13205;DHT22;6667;52.634;9.226;2022-09-29T17:32:31;13.50;99.90
13205;DHT22;6667;52.634;9.226;2022-09-29T17:34:58;13.30;99.90
13205;DHT22;6667;52.634;9.226;2022-09-29T17:37:26;13.30;99.90
13205;DHT22;6667;52.634;9.226;2022-09-29T17:39:53;13.20;99.90
13205;DHT22;6667;52.634;9.226;2022-09-29T17:42:21;13.30;99.90
13205;DHT22;6667;52.634;9.226;2022-09-29T17:44:50;13.20;99.90
13205;DHT22;6667;52.634;9.226;2022-09-29T17:47:17;13.20;99.90
13205;DHT22;6667;52.634;9.226;2022-09-29T17:49:44;13.10;99.90
13205;DHT22;6667;52.634;9.226;2022-09-29T17:52:15;13.10;99.90
13205;DHT22;6667;52.634;9.226;2022-09-29T17:54:45;12.90;99.90
13205;DHT22;6667;52.634;9.226;2022-09-29T17:57:18;12.80;99.90
13205;DHT22;6667;52.634;9.226;2022-09-29T17:59:46;12.60;99.90
13205;DHT22;6667;52.634;9.226;2022-09-29T18:02:13;12.50;99.90
13205;DHT22;6667;52.634;9.226;2022-09-29T18:04:41;12.50;99.90
13205;DHT22;6667;52.634;9.226;2022-09-29T18:07:13;12.50;99.90
13205;DHT22;6667;52.634;9.226;2022-09-29T18:09:40;12.70;99.90
13205;DHT22;6667;52.634;9.226;2022-09-29T18:12:08;12.70;99.90
13205;DHT22;6667;52.634;9.226;2022-09-29T18:14:35;12.70;99.90
13205;DHT22;6667;52.634;9.226;2022-09-29T18:17:02;12.70;99.90
13205;DHT22;6667;52.634;9.226;2022-09-29T18:19:30;12.70;99.90
13205;DHT22;6667;52.634;9.226;2022-09-29T18:21:57;12.60;99.90
13205;DHT22;6667;52.634;9.226;2022-09-29T18:24:25;12.60;99.90
13205;DHT22;6667;52.634;9.226;2022-09-29T18:26:52;12.60;99.90
13205;DHT22;6667;52.634;9.226;2022-09-29T18:29:20;12.30;99.90
13205;DHT22;6667;52.634;9.226;2022-09-29T18:31:48;12.30;99.90
13205;DHT22;6667;52.634;9.226;2022-09-29T18:34:17;12.10;99.90
13205;DHT22;6667;52.634;9.226;2022-09-29T18:36:45;12.20;99.90
13205;DHT22;6667;52.634;9.226;2022-09-29T18:39:12;12.20;99.90
13205;DHT22;6667;52.634;9.226;2022-09-29T18:41:39;12.30;99.90
13205;DHT22;6667;52.634;9.226;2022-09-29T18:44:12;12.20;99.90
13205;DHT22;6667;52.634;9.226;2022-09-29T18:46:42;12.30;99.90
13205;DHT22;6667;52.634;9.226;2022-09-29T18:49:10;12.20;99.90
13205;DHT22;6667;52.634;9.226;2022-09-29T18:51:38;12.10;99.90
13205;DHT22;6667;52.634;9.226;2022-09-29T18:54:05;12.10;99.90
13205;DHT22;6667;52.634;9.226;2022-09-29T18:56:33;12.10;99.90
13205;DHT22;6667;52.634;9.226;2022-09-29T18:59:00;12.00;99.90
13205;DHT22;6667;52.634;9.226;2022-09-29T19:01:28;12.00;99.90
13205;DHT22;6667;52.634;9.226;2022-09-29T19:03:56;11.90;99.90
13205;DHT22;6667;52.634;9.226;2022-09-29T19:06:23;12.00;99.90
13205;DHT22;6667;52.634;9.226;2022-09-29T19:08:51;11.90;99.90
13205;DHT22;6667;52.634;9.226;2022-09-29T19:11:20;12.00;99.90
13205;DHT22;6667;52.634;9.226;2022-09-29T19:13:47;11.90;99.90
13205;DHT22;6667;52.634;9.226;2022-09-29T19:16:16;12.00;99.90
13205;DHT22;6667;52.634;9.226;2022-09-29T19:18:43;12.00;99.90
13205;DHT22;6667;52.634;9.226;2022-09-29T19:21:13;12.10;99.90
13205;DHT22;6667;52.634;9.226;2022-09-29T19:23:41;12.00;99.90
13205;DHT22;6667;52.634;9.226;2022-09-29T19:26:10;11.80;99.90
13205;DHT22;6667;52.634;9.226;2022-09-29T19:28:37;11.90;99.90
13205;DHT22;6667;52.634;9.226;2022-09-29T19:31:07;11.70;99.90
13205;DHT22;6667;52.634;9.226;2022-09-29T19:33:34;11.80;99.90
13205;DHT22;6667;52.634;9.226;2022-09-29T19:36:03;11.80;99.90
13205;DHT22;6667;52.634;9.226;2022-09-29T19:38:34;11.80;99.90
13205;DHT22;6667;52.634;9.226;2022-09-29T19:41:01;11.60;99.90
13205;DHT22;6667;52.634;9.226;2022-09-29T19:43:29;11.60;99.90
13205;DHT22;6667;52.634;9.226;2022-09-29T19:45:56;11.40;99.90
13205;DHT22;6667;52.634;9.226;2022-09-29T19:48:23;11.40;99.90
13205;DHT22;6667;52.634;9.226;2022-09-29T19:50:56;11.50;99.90
13205;DHT22;6667;52.634;9.226;2022-09-29T19:53:41;11.50;99.90
13205;DHT22;6667;52.634;9.226;2022-09-29T19:56:09;11.60;99.90
13205;DHT22;6667;52.634;9.226;2022-09-29T19:58:37;11.60;99.90
13205;DHT22;6667;52.634;9.226;2022-09-29T20:01:05;11.60;99.90
13205;DHT22;6667;52.634;9.226;2022-09-29T20:03:32;11.60;99.90
13205;DHT22;6667;52.634;9.226;2022-09-29T20:05:59;11.70;99.90
13205;DHT22;6667;52.634;9.226;2022-09-29T20:08:27;11.50;99.90
13205;DHT22;6667;52.634;9.226;2022-09-29T20:11:03;11.50;99.90
13205;DHT22;6667;52.634;9.226;2022-09-29T20:13:30;11.50;99.90
13205;DHT22;6667;52.634;9.226;2022-09-29T20:15:57;11.40;99.90
13205;DHT22;6667;52.634;9.226;2022-09-29T20:18:24;11.40;99.90
13205;DHT22;6667;52.634;9.226;2022-09-29T20:20:52;11.30;99.90
13205;DHT22;6667;52.634;9.226;2022-09-29T20:23:19;11.20;99.90
13205;DHT22;6667;52.634;9.226;2022-09-29T20:25:58;11.20;99.90
13205;DHT22;6667;52.634;9.226;2022-09-29T20:28:25;11.20;99.90
13205;DHT22;6667;52.634;9.226;2022-09-29T20:30:56;11.10;99.90
13205;DHT22;6667;52.634;9.226;2022-09-29T20:33:23;11.10;99.90
13205;DHT22;6667;52.634;9.226;2022-09-29T20:35:50;11.10;99.90
13205;DHT22;6667;52.634;9.226;2022-09-29T20:38:17;11.10;99.90
13205;DHT22;6667;52.634;9.226;2022-09-29T20:40:44;11.20;99.90
13205;DHT22;6667;52.634;9.226;2022-09-29T20:43:13;11.30;99.90
13205;DHT22;6667;52.634;9.226;2022-09-29T20:45:40;11.30;99.90
13205;DHT22;6667;52.634;9.226;2022-09-29T20:48:07;11.30;99.90
13205;DHT22;6667;52.634;9.226;2022-09-29T20:50:36;11.20;99.90
